ロングイェールビーン の空港の天気 - METARとTAF

スヴァールバル空港 ( ENSB / LYR ) - スヴァールバル諸島・ヤンマイエン島 ロングイェールビーン
飛行場実況気象(Metar)
観測時間04/26 17:50 CEST (04/26 15:50 UTC)
風向・風速東南東 3m/s
視程10km以上
天気現象
少しの雲 雲底高度 300m
全天の8割程度の雲 雲底高度 550m
気温-1℃
湿度80%
気圧1026hPa
METARENSB 261550Z 11005KT 9999 FEW010 BKN018 M01/M04 Q1026 RMK WIND 1400FT 28005KT
過去の天気等 Google飛行場航空写真 Wunderground天気予報

過去48時間のMETAR

飛行場予報(TAF)
発表時間: -
26日23時 CEST から 確率 30% で
視程4000m
天気現象弱い雪
全天の8割程度の雲 雲底高度 370m
TAF ENSB 2612/2712 VRB05KT 9999 FEW015 SCT020
PROB30 2621/2703 4000 -SN BKN012